| time (UTC) | temp C | wind direction | speed KPH | gust KPH | rain 1hr cm | rain 24hr cm | rain mn cm | humidity % | barometer mb |
| 20260509011733 | -17 | 225 | 0.0 | 0.0 | 0.00 | 0.00 | 0.00 | 1010.0 | |
| 20260509011231 | -17 | 225 | 0.0 | 0.0 | 0.00 | 0.00 | 0.00 | 1010.1 | |
| 20260509010728 | -17 | 225 | 0.0 | 0.0 | 0.00 | 0.00 | 0.00 | 1010.0 | |
| 20260509010225 | -17 | 226 | 0.0 | 0.0 | 0.00 | 0.00 | 0.00 | 1010.0 | |
| 20260509005722 | -17 | 226 | 0.0 | 0.0 | 0.00 | 0.00 | 0.00 | 1010.1 | |
| 20260509005219 | -17 | 226 | 0.0 | 0.0 | 0.00 | 0.00 | 0.00 | 1010.2 | |
| 20260509004713 | -17 | 225 | 0.0 | 0.0 | 0.00 | 0.00 | 0.00 | 1010.1 | |
| 20260509004212 | -17 | 225 | 0.0 | 0.0 | 0.00 | 0.00 | 0.00 | 1010.1 | |
| 20260509003709 | -17 | 225 | 0.0 | 0.0 | 0.00 | 0.00 | 0.00 | 1010.3 | |
| 20260509003207 | -17 | 225 | 0.0 | 0.0 | 0.00 | 0.00 | 0.00 | 1010.2 | |
| 20260509002704 | -17 | 225 | 0.0 | 0.0 | 0.00 | 0.00 | 0.00 | 1010.1 | |
| 20260509002201 | -17 | 226 | 0.0 | 0.0 | 0.00 | 0.00 | 0.00 | 1010.1 | |
| 20260509001659 | -17 | 226 | 0.0 | 0.0 | 0.00 | 0.00 | 0.00 | 1010.5 | |
| 20260509001155 | -17 | 225 | 0.0 | 0.0 | 0.00 | 0.00 | 0.00 | 1010.3 | |
| 20260509000653 | -17 | 228 | 0.0 | 1.6 | 0.00 | 0.00 | 0.00 | 1010.2 | |
| 20260509000149 | -17 | 240 | 1.6 | 1.6 | 0.00 | 0.00 | 0.00 | 1010.5 | |
| 20260508235647 | -17 | 238 | 3.2 | 3.2 | 0.00 | 0.00 | 0.00 | 1010.7 | |
| 20260508235143 | -17 | 237 | 0.0 | 1.6 | 0.00 | 0.00 | 0.00 | 1010.5 | |
| 20260508234640 | -17 | 228 | 3.2 | 3.2 | 0.00 | 0.00 | 0.00 | 1010.6 | |
| 20260508234137 | -17 | 213 | 4.8 | 6.4 | 0.00 | 0.00 | 0.00 | 1010.6 | |
| 20260508233636 | -17 | 237 | 1.6 | 3.2 | 0.00 | 0.00 | 0.00 | 1010.3 | |
| 20260508233133 | -17 | 224 | 3.2 | 6.4 | 0.00 | 0.00 | 0.00 | 1010.5 | |
| 20260508232631 | -17 | 164 | 8.0 | 11.3 | 0.00 | 0.00 | 0.00 | 1010.7 | |
| 20260508232128 | -17 | 200 | 9.7 | 12.9 | 0.00 | 0.00 | 0.00 | 1010.6 | |
| 20260508231625 | -17 | 259 | 8.0 | 14.5 | 0.00 | 0.00 | 0.00 | 1010.7 | |
| 20260508231122 | -17 | 229 | 6.4 | 12.9 | 0.00 | 0.00 | 0.00 | 1010.8 | |
| 20260508230618 | -17 | 242 | 11.3 | 12.9 | 0.00 | 0.00 | 0.00 | 1010.9 | |
| 20260508230115 | -17 | 221 | 9.7 | 12.9 | 0.00 | 0.00 | 0.00 | 1010.8 | |
| 20260508225613 | -17 | 210 | 6.4 | 9.7 | 0.00 | 0.00 | 0.00 | 1010.9 | |
| 20260508225109 | -17 | 241 | 9.7 | 11.3 | 0.00 | 0.00 | 0.00 | 1010.9 | |
| 20260508224607 | -17 | 256 | 4.8 | 11.3 | 0.00 | 0.00 | 0.00 | 1010.8 | |
| 20260508224104 | -17 | 203 | 8.0 | 11.3 | 0.00 | 0.00 | 0.00 | 1010.8 | |
| 20260508223602 | -17 | 206 | 6.4 | 9.7 | 0.00 | 0.00 | 0.00 | 1010.8 | |
| 20260508223058 | -17 | 234 | 6.4 | 9.7 | 0.00 | 0.00 | 0.00 | 1010.8 | |
| 20260508222556 | -17 | 229 | 8.0 | 14.5 | 0.00 | 0.00 | 0.00 | 1010.8 | |
| 20260508222053 | -17 | 210 | 14.5 | 20.9 | 0.00 | 0.00 | 0.00 | 1010.9 | |
| 20260508221549 | -17 | 263 | 14.5 | 20.9 | 0.00 | 0.00 | 0.00 | 1010.8 | |
| 20260508221045 | -17 | 216 | 12.9 | 17.7 | 0.00 | 0.00 | 0.00 | 1010.8 | |
| 20260508220542 | -17 | 223 | 9.7 | 14.5 | 0.00 | 0.00 | 0.00 | 1010.8 | |
| 20260508220038 | -17 | 218 | 8.0 | 12.9 | 0.00 | 0.00 | 0.00 | 1010.7 | |
| 20260508215535 | -17 | 203 | 9.7 | 11.3 | 0.00 | 0.00 | 0.00 | 1010.7 | |
| 20260508215032 | -17 | 253 | 6.4 | 9.7 | 0.00 | 0.00 | 0.00 | 1010.7 | |
| 20260508214529 | -17 | 191 | 9.7 | 14.5 | 0.00 | 0.00 | 0.00 | 1010.7 | |
| 20260508214025 | -17 | 236 | 6.4 | 14.5 | 0.00 | 0.00 | 0.00 | 1010.8 | |
| 20260508213523 | -17 | 238 | 6.4 | 11.3 | 0.00 | 0.00 | 0.00 | 1010.7 | |
| 20260508213018 | -17 | 188 | 6.4 | 9.7 | 0.00 | 0.00 | 0.00 | 1010.8 | |
| 20260508212515 | -17 | 195 | 3.2 | 9.7 | 0.00 | 0.00 | 0.00 | 1010.8 | |
| 20260508212012 | -17 | 263 | 9.7 | 14.5 | 0.00 | 0.00 | 0.00 | 1010.9 | |
| 20260508211507 | -17 | 241 | 8.0 | 12.9 | 0.00 | 0.00 | 0.00 | 1011.1 | |
| 20260508211004 | -17 | 260 | 12.9 | 16.1 | 0.00 | 0.00 | 0.00 | 1011.0 | |
| 20260508210500 | -17 | 206 | 9.7 | 16.1 | 0.00 | 0.00 | 0.00 | 1011.2 | |
| 20260508205957 | -17 | 243 | 9.7 | 16.1 | 0.00 | 0.00 | 0.00 | 1011.1 | |
| 20260508205454 | -17 | 251 | 8.0 | 12.9 | 0.00 | 0.00 | 0.00 | 1011.3 | |
| 20260508204951 | -17 | 214 | 3.2 | 6.4 | 0.00 | 0.00 | 0.00 | 1011.2 | |
| 20260508204448 | -17 | 270 | 4.8 | 9.7 | 0.00 | 0.00 | 0.00 | 1011.4 | |
| 20260508203943 | -17 | 287 | 9.7 | 12.9 | 0.00 | 0.00 | 0.00 | 1011.3 | |
| 20260508203440 | -17 | 256 | 9.7 | 14.5 | 0.00 | 0.00 | 0.00 | 1011.4 | |
| 20260508202935 | -17 | 269 | 14.5 | 14.5 | 0.00 | 0.00 | 0.00 | 1011.5 | |
| 20260508202433 | -17 | 171 | 8.0 | 17.7 | 0.00 | 0.00 | 0.00 | 1011.4 | |
| 20260508201930 | -17 | 220 | 4.8 | 20.9 | 0.00 | 0.00 | 0.00 | 1011.4 | |
| 20260508201426 | -17 | 253 | 12.9 | 16.1 | 0.00 | 0.00 | 0.00 | 1011.5 | |
| 20260508200923 | -17 | 209 | 11.3 | 14.5 | 0.00 | 0.00 | 0.00 | 1011.6 | |
| 20260508200420 | -17 | 196 | 4.8 | 12.9 | 0.00 | 0.00 | 0.00 | 1011.6 | |
| 20260508195915 | -17 | 179 | 12.9 | 17.7 | 0.00 | 0.00 | 0.00 | 1011.6 | |
| 20260508195413 | -17 | 229 | 9.7 | 14.5 | 0.00 | 0.00 | 0.00 | 1011.9 | |
| 20260508194909 | -17 | 226 | 8.0 | 14.5 | 0.00 | 0.00 | 0.00 | 1011.8 | |
| 20260508194406 | -17 | 207 | 6.4 | 11.3 | 0.00 | 0.00 | 0.00 | 1011.8 | |
| 20260508193903 | -17 | 198 | 8.0 | 14.5 | 0.00 | 0.00 | 0.00 | 1011.9 | |
| 20260508193359 | -17 | 233 | 8.0 | 12.9 | 0.00 | 0.00 | 0.00 | 1012.0 | |
| 20260508192856 | -17 | 239 | 9.7 | 14.5 | 0.00 | 0.00 | 0.00 | 1012.1 | |
| 20260508192353 | -17 | 190 | 3.2 | 9.7 | 0.00 | 0.00 | 0.00 | 1012.2 | |
| 20260508191850 | -17 | 229 | 8.0 | 14.5 | 0.00 | 0.00 | 0.00 | 1012.3 | |
| 20260508191348 | -17 | 136 | 6.4 | 12.9 | 0.00 | 0.00 | 0.00 | 1012.3 | |
| 20260508190844 | -17 | 167 | 16.1 | 22.5 | 0.00 | 0.00 | 0.00 | 1012.4 | |
| 20260508190341 | -17 | 214 | 11.3 | 20.9 | 0.00 | 0.00 | 0.00 | 1012.4 | |
| 20260508185837 | -17 | 223 | 12.9 | 17.7 | 0.00 | 0.00 | 0.00 | 1012.4 | |
| 20260508185335 | -17 | 171 | 11.3 | 17.7 | 0.00 | 0.00 | 0.00 | 1012.5 | |
| 20260508184832 | -17 | 228 | 3.2 | 17.7 | 0.00 | 0.00 | 0.00 | 1012.6 | |
| 20260508184329 | -17 | 190 | 6.4 | 14.5 | 0.00 | 0.00 | 0.00 | 1012.8 | |
| 20260508183826 | -17 | 210 | 8.0 | 12.9 | 0.00 | 0.00 | 0.00 | 1012.8 | |
| 20260508183323 | -17 | 216 | 9.7 | 14.5 | 0.00 | 0.00 | 0.00 | 1012.8 | |
| 20260508182818 | -17 | 249 | 11.3 | 14.5 | 0.00 | 0.00 | 0.00 | 1012.9 | |
| 20260508182315 | -17 | 226 | 11.3 | 22.5 | 0.00 | 0.00 | 0.00 | 1013.0 | |
| 20260508181811 | -17 | 184 | 6.4 | 20.9 | 0.00 | 0.00 | 0.00 | 1013.2 | |
| 20260508181308 | -17 | 221 | 9.7 | 14.5 | 0.00 | 0.00 | 0.00 | 1013.2 | |
| 20260508180805 | -17 | 239 | 14.5 | 16.1 | 0.00 | 0.00 | 0.00 | 1013.5 | |
| 20260508180302 | -17 | 202 | 9.7 | 12.9 | 0.00 | 0.00 | 0.00 | 1013.7 | |
| 20260508175758 | -17 | 238 | 3.2 | 9.7 | 0.00 | 0.00 | 0.00 | 1013.6 | |
| 20260508175255 | -17 | 171 | 8.0 | 17.7 | 0.00 | 0.00 | 0.00 | 1013.8 | |
| 20260508174753 | -17 | 166 | 14.5 | 17.7 | 0.00 | 0.00 | 0.00 | 1013.8 | |
| 20260508174250 | -17 | 116 | 9.7 | 12.9 | 0.00 | 0.00 | 0.00 | 1013.9 | |
| 20260508173746 | -17 | 166 | 8.0 | 17.7 | 0.00 | 0.00 | 0.00 | 1014.0 | |
| 20260508173242 | -17 | 195 | 6.4 | 11.3 | 0.00 | 0.00 | 0.00 | 1014.1 | |
| 20260508172739 | -17 | 184 | 6.4 | 14.5 | 0.00 | 0.00 | 0.00 | 1014.4 | |
| 20260508172236 | -17 | 185 | 8.0 | 12.9 | 0.00 | 0.00 | 0.00 | 1014.6 | |
| 20260508171733 | -17 | 195 | 11.3 | 16.1 | 0.00 | 0.00 | 0.00 | 1014.4 | |
| 20260508171228 | -17 | 186 | 11.3 | 16.1 | 0.00 | 0.00 | 0.00 | 1014.6 | |
| 20260508170726 | -17 | 184 | 9.7 | 14.5 | 0.00 | 0.00 | 0.00 | 1014.7 | |
| 20260508170224 | -17 | 178 | 6.4 | 9.7 | 0.00 | 0.00 | 0.00 | 1014.7 | |
| 20260508165720 | -17 | 207 | 6.4 | 9.7 | 0.00 | 0.00 | 0.00 | 1014.8 | |
| 20260508165218 | -17 | 258 | 6.4 | 12.9 | 0.00 | 0.00 | 0.00 | 1015.0 | |
| 20260508164714 | -17 | 116 | 6.4 | 11.3 | 0.00 | 0.00 | 0.00 | 1015.2 | |
| 20260508164210 | -17 | 196 | 3.2 | 11.3 | 0.00 | 0.00 | 0.00 | 1015.2 | |
| 20260508163709 | -17 | 204 | 11.3 | 12.9 | 0.00 | 0.00 | 0.00 | 1015.3 | |
| 20260508163206 | -17 | 188 | 3.2 | 11.3 | 0.00 | 0.00 | 0.00 | 1015.2 | |
| 20260508162701 | -17 | 241 | 3.2 | 4.8 | 0.00 | 0.00 | 0.00 | 1015.6 | |
| 20260508162159 | -17 | 198 | 3.2 | 4.8 | 0.00 | 0.00 | 0.00 | 1015.5 | |
| 20260508161656 | -17 | 215 | 6.4 | 9.7 | 0.00 | 0.00 | 0.00 | 1015.5 | |
| 20260508161153 | -17 | 212 | 9.7 | 12.9 | 0.00 | 0.00 | 0.00 | 1015.4 | |
| 20260508160651 | -17 | 175 | 11.3 | 16.1 | 0.00 | 0.00 | 0.00 | 1015.8 | |
| 20260508160149 | -17 | 200 | 4.8 | 11.3 | 0.00 | 0.00 | 0.00 | 1015.7 | |
| 20260508155645 | -17 | 129 | 6.4 | 9.7 | 0.00 | 0.00 | 0.00 | 1015.6 | |
| 20260508155142 | -17 | 219 | 6.4 | 12.9 | 0.00 | 0.00 | 0.00 | 1015.9 | |
| 20260508154639 | -17 | 239 | 6.4 | 11.3 | 0.00 | 0.00 | 0.00 | 1015.8 | |
| 20260508154136 | -17 | 235 | 3.2 | 4.8 | 0.00 | 0.00 | 0.00 | 1015.9 | |
| 20260508153632 | -17 | 176 | 6.4 | 11.3 | 0.00 | 0.00 | 0.00 | 1016.0 | |
| 20260508153130 | -17 | 169 | 4.8 | 11.3 | 0.00 | 0.00 | 0.00 | 1016.0 | |
| 20260508152626 | -17 | 195 | 6.4 | 11.3 | 0.00 | 0.00 | 0.00 | 1016.2 | |
| 20260508152121 | -17 | 260 | 6.4 | 9.7 | 0.00 | 0.00 | 0.00 | 1016.1 | |
| 20260508151619 | -17 | 153 | 4.8 | 6.4 | 0.00 | 0.00 | 0.00 | 1016.2 | |
| 20260508151115 | -17 | 143 | 6.4 | 11.3 | 0.00 | 0.00 | 0.00 | 1016.1 | |
| 20260508150612 | -17 | 203 | 3.2 | 6.4 | 0.00 | 0.00 | 0.00 | 1016.3 | |
| 20260508150109 | -17 | 239 | 1.6 | 9.7 | 0.00 | 0.00 | 0.00 | 1016.2 | |
| 20260508145559 | -17 | 174 | 4.8 | 6.4 | 0.00 | 0.00 | 0.00 | 1016.4 | |
| 20260508145056 | -17 | 249 | 4.8 | 11.3 | 0.00 | 0.00 | 0.00 | 1016.3 | |
| 20260508144554 | -17 | 222 | 4.8 | 11.3 | 0.00 | 0.00 | 0.00 | 1016.3 | |
| 20260508144050 | 16 | 222 | 8.0 | 14.5 | 0.00 | 0.00 | 0.00 | 51 | 1016.1 |
| 20260508143548 | 15 | 239 | 4.8 | 12.9 | 0.00 | 0.00 | 0.00 | 50 | 1016.4 |
| 20260508143044 | 16 | 222 | 6.4 | 12.9 | 0.00 | 0.00 | 0.00 | 53 | 1016.3 |
| 20260508142541 | 15 | 260 | 1.6 | 4.8 | 0.00 | 0.00 | 0.00 | 59 | 1016.3 |
| 20260508142038 | 15 | 281 | 6.4 | 6.4 | 0.00 | 0.00 | 0.00 | 66 | 1016.5 |
| 20260508141534 | 14 | 256 | 3.2 | 6.4 | 0.00 | 0.00 | 0.00 | 70 | 1016.6 |
| 20260508141033 | 14 | 239 | 3.2 | 4.8 | 0.00 | 0.00 | 0.00 | 71 | 1016.4 |
| 20260508140530 | 13 | 241 | 0.0 | 6.4 | 0.00 | 0.00 | 0.00 | 75 | 1016.6 |
| 20260508140026 | 12 | 260 | 3.2 | 4.8 | 0.00 | 0.00 | 0.00 | 78 | 1016.6 |
| 20260508135521 | 12 | 253 | 3.2 | 6.4 | 0.00 | 0.00 | 0.00 | 79 | 1016.6 |
| 20260508135018 | 11 | 256 | 3.2 | 6.4 | 0.00 | 0.00 | 0.00 | 80 | 1016.4 |
| 20260508134514 | 11 | 250 | 4.8 | 4.8 | 0.00 | 0.00 | 0.00 | 82 | 1016.6 |
| 20260508134012 | 11 | 235 | 3.2 | 6.4 | 0.00 | 0.00 | 0.00 | 84 | 1016.6 |
| 20260508133508 | 10 | 219 | 0.0 | 3.2 | 0.00 | 0.00 | 0.00 | 88 | 1016.6 |
| 20260508133005 | 10 | 233 | 1.6 | 3.2 | 0.00 | 0.00 | 0.00 | 91 | 1016.4 |
| 20260508132503 | 10 | 272 | 3.2 | 3.2 | 0.00 | 0.00 | 0.00 | 94 | 1016.5 |
| 20260508131959 | 9 | 332 | 1.6 | 1.6 | 0.00 | 0.00 | 0.00 | 94 | 1016.6 |
| 20260508131455 | 9 | 332 | 0.0 | 0.0 | 0.00 | 0.00 | 0.00 | 96 | 1016.3 |
| 20260508130952 | 9 | 332 | 0.0 | 1.6 | 0.00 | 0.00 | 0.00 | 97 | 1016.3 |
| 20260508130449 | 8 | 332 | 0.0 | 0.0 | 0.00 | 0.00 | 0.00 | 99 | 1016.4 |
| 20260508125944 | 8 | 331 | 0.0 | 0.0 | 0.00 | 0.00 | 0.00 | 99 | 1016.2 |
| 20260508125441 | 7 | 332 | 0.0 | 0.0 | 0.00 | 0.00 | 0.00 | 99 | 1016.4 |
| 20260508124939 | 6 | 332 | 0.0 | 0.0 | 0.00 | 0.00 | 0.00 | 99 | 1016.3 |
| 20260508124436 | 6 | 331 | 0.0 | 0.0 | 0.00 | 0.00 | 0.00 | 99 | 1016.4 |
| 20260508123934 | 6 | 332 | 0.0 | 0.0 | 0.00 | 0.00 | 0.00 | 99 | 1016.3 |
| 20260508123432 | 6 | 332 | 0.0 | 1.6 | 0.00 | 0.00 | 0.00 | 99 | 1016.5 |
| 20260508122928 | 5 | 332 | 0.0 | 1.6 | 0.00 | 0.00 | 0.00 | 99 | 1016.1 |
| 20260508122426 | 5 | 31 | 1.6 | 1.6 | 0.00 | 0.00 | 0.00 | 99 | 1016.3 |
| 20260508121923 | 5 | 210 | 0.0 | 0.0 | 0.00 | 0.00 | 0.00 | 99 | 1016.4 |
| 20260508121421 | 5 | 210 | 0.0 | 0.0 | 0.00 | 0.00 | 0.00 | 99 | 1016.2 |
| 20260508120918 | 5 | 210 | 0.0 | 0.0 | 0.00 | 0.00 | 0.00 | 99 | 1016.3 |
| 20260508120416 | 5 | 212 | 0.0 | 0.0 | 0.00 | 0.00 | 0.00 | 99 | 1016.1 |
| 20260508115913 | 5 | 212 | 0.0 | 0.0 | 0.00 | 0.00 | 0.00 | 99 | 1016.0 |
| 20260508115411 | 3 | 211 | 0.0 | 0.0 | 0.00 | 0.00 | 0.00 | 99 | 1016.1 |
| 20260508114907 | 2 | 212 | 0.0 | 0.0 | 0.00 | 0.00 | 0.00 | 99 | 1016.3 |
| 20260508114404 | 2 | 212 | 0.0 | 0.0 | 0.00 | 0.00 | 0.00 | 99 | 1016.1 |
| 20260508113900 | 2 | 211 | 0.0 | 0.0 | 0.00 | 0.00 | 0.00 | 99 | 1016.0 |
| 20260508113359 | 1 | 211 | 0.0 | 0.0 | 0.00 | 0.00 | 0.00 | 99 | 1016.0 |
| 20260508112855 | 2 | 211 | 0.0 | 0.0 | 0.00 | 0.00 | 0.00 | 99 | 1016.1 |
| 20260508112352 | 1 | 210 | 0.0 | 0.0 | 0.00 | 0.00 | 0.00 | 99 | 1015.8 |
| 20260508111849 | 1 | 211 | 0.0 | 0.0 | 0.00 | 0.00 | 0.00 | 99 | 1015.6 |
| 20260508111346 | 1 | 211 | 0.0 | 0.0 | 0.00 | 0.00 | 0.00 | 99 | 1015.7 |
| 20260508110843 | 1 | 211 | 0.0 | 0.0 | 0.00 | 0.00 | 0.00 | 99 | 1015.5 |
| 20260508110341 | 0 | 211 | 0.0 | 0.0 | 0.00 | 0.00 | 0.00 | 99 | 1015.5 |
| 20260508105840 | 0 | 211 | 0.0 | 0.0 | 0.00 | 0.00 | 0.00 | 99 | 1015.3 |
| 20260508105337 | 0 | 210 | 0.0 | 0.0 | 0.00 | 0.00 | 0.00 | 99 | 1015.3 |
| 20260508104834 | 0 | 210 | 0.0 | 0.0 | 0.00 | 0.00 | 0.00 | 99 | 1015.4 |
| 20260508104331 | 0 | 210 | 0.0 | 0.0 | 0.00 | 0.00 | 0.00 | 99 | 1015.3 |
| 20260508103828 | 0 | 210 | 0.0 | 0.0 | 0.00 | 0.00 | 0.00 | 99 | 1015.4 |
| 20260508103325 | 0 | 210 | 0.0 | 0.0 | 0.00 | 0.00 | 0.00 | 99 | 1015.4 |
| 20260508102823 | 0 | 210 | 0.0 | 0.0 | 0.00 | 0.00 | 0.00 | 99 | 1015.3 |
| 20260508102321 | 0 | 210 | 0.0 | 0.0 | 0.00 | 0.00 | 0.00 | 99 | 1015.4 |
| 20260508101818 | 0 | 210 | 0.0 | 0.0 | 0.00 | 0.00 | 0.00 | 99 | 1015.2 |
| 20260508101315 | 0 | 210 | 0.0 | 0.0 | 0.00 | 0.00 | 0.00 | 99 | 1015.4 |
| 20260508100812 | 0 | 210 | 0.0 | 0.0 | 0.00 | 0.00 | 0.00 | 99 | 1015.3 |
| 20260508100311 | 1 | 210 | 0.0 | 0.0 | 0.00 | 0.00 | 0.00 | 99 | 1015.3 |
| 20260508095806 | 1 | 210 | 0.0 | 0.0 | 0.00 | 0.00 | 0.00 | 99 | 1015.3 |
| 20260508095306 | 1 | 210 | 0.0 | 0.0 | 0.00 | 0.00 | 0.00 | 99 | 1015.3 |
| 20260508094801 | 1 | 210 | 0.0 | 0.0 | 0.00 | 0.00 | 0.00 | 99 | 1015.3 |
| 20260508094258 | 1 | 210 | 0.0 | 0.0 | 0.00 | 0.00 | 0.00 | 99 | 1015.4 |
| 20260508093755 | 1 | 208 | 0.0 | 1.6 | 0.00 | 0.00 | 0.00 | 99 | 1015.4 |
| 20260508093253 | 1 | 212 | 3.2 | 3.2 | 0.00 | 0.00 | 0.00 | 99 | 1015.2 |
| 20260508092749 | 1 | 216 | 0.0 | 0.0 | 0.00 | 0.00 | 0.00 | 99 | 1015.3 |
| 20260508092247 | 1 | 216 | 0.0 | 1.6 | 0.00 | 0.00 | 0.00 | 99 | 1015.3 |
| 20260508091745 | 1 | 217 | 0.0 | 0.0 | 0.00 | 0.00 | 0.00 | 99 | 1015.4 |
| 20260508091242 | 1 | 217 | 0.0 | 0.0 | 0.00 | 0.00 | 0.00 | 99 | 1015.3 |
| 20260508090740 | 1 | 217 | 0.0 | 0.0 | 0.00 | 0.00 | 0.00 | 99 | 1015.5 |
| 20260508090237 | 1 | 217 | 0.0 | 0.0 | 0.00 | 0.00 | 0.00 | 99 | 1015.5 |
| 20260508085733 | 1 | 217 | 0.0 | 0.0 | 0.00 | 0.00 | 0.00 | 99 | 1015.5 |
| 20260508085230 | 1 | 217 | 0.0 | 0.0 | 0.00 | 0.00 | 0.00 | 99 | 1015.4 |
| 20260508084726 | 1 | 217 | 0.0 | 0.0 | 0.00 | 0.00 | 0.00 | 99 | 1015.5 |
| 20260508084224 | 1 | 217 | 0.0 | 0.0 | 0.00 | 0.00 | 0.00 | 99 | 1015.5 |
| 20260508083721 | 1 | 217 | 0.0 | 0.0 | 0.00 | 0.00 | 0.00 | 99 | 1015.5 |
| 20260508083219 | 1 | 217 | 0.0 | 0.0 | 0.00 | 0.00 | 0.00 | 99 | 1015.5 |
| 20260508082713 | 1 | 217 | 0.0 | 0.0 | 0.00 | 0.00 | 0.00 | 99 | 1015.4 |
| 20260508082211 | 1 | 217 | 0.0 | 0.0 | 0.00 | 0.00 | 0.00 | 99 | 1015.3 |
| 20260508081708 | 1 | 217 | 0.0 | 0.0 | 0.00 | 0.00 | 0.00 | 99 | 1015.4 |
| 20260508081204 | 1 | 217 | 0.0 | 0.0 | 0.00 | 0.00 | 0.00 | 99 | 1015.5 |
| 20260508080702 | 1 | 217 | 0.0 | 0.0 | 0.00 | 0.00 | 0.00 | 99 | 1015.3 |
| 20260508080200 | 2 | 217 | 0.0 | 0.0 | 0.00 | 0.00 | 0.00 | 99 | 1015.3 |
| 20260508075656 | 1 | 217 | 0.0 | 0.0 | 0.00 | 0.00 | 0.00 | 99 | 1015.0 |
| 20260508075153 | 2 | 217 | 0.0 | 0.0 | 0.00 | 0.00 | 0.00 | 99 | 1015.2 |
| 20260508074651 | 2 | 217 | 0.0 | 0.0 | 0.00 | 0.00 | 0.00 | 99 | 1015.4 |
| 20260508074148 | 2 | 217 | 0.0 | 0.0 | 0.00 | 0.00 | 0.00 | 99 | 1015.2 |
| 20260508073645 | 1 | 217 | 0.0 | 0.0 | 0.00 | 0.00 | 0.00 | 99 | 1015.3 |
| 20260508073143 | 1 | 217 | 0.0 | 0.0 | 0.00 | 0.00 | 0.00 | 99 | 1015.3 |
| 20260508072638 | 1 | 217 | 0.0 | 0.0 | 0.00 | 0.00 | 0.00 | 99 | 1015.5 |
| 20260508072136 | 2 | 217 | 0.0 | 0.0 | 0.00 | 0.00 | 0.00 | 99 | 1015.4 |
| 20260508071633 | 2 | 217 | 0.0 | 0.0 | 0.00 | 0.00 | 0.00 | 99 | 1015.5 |
| 20260508071131 | 2 | 217 | 0.0 | 0.0 | 0.00 | 0.00 | 0.00 | 99 | 1015.4 |
| 20260508070628 | 2 | 217 | 0.0 | 0.0 | 0.00 | 0.00 | 0.00 | 99 | 1015.4 |
| 20260508070127 | 2 | 217 | 0.0 | 0.0 | 0.00 | 0.00 | 0.00 | 99 | 1015.5 |
| 20260508065624 | 2 | 217 | 0.0 | 0.0 | 0.00 | 0.00 | 0.00 | 99 | 1015.5 |
| 20260508065122 | 2 | 217 | 0.0 | 0.0 | 0.00 | 0.00 | 0.00 | 99 | 1015.6 |
| 20260508064619 | 2 | 217 | 0.0 | 1.6 | 0.00 | 0.00 | 0.00 | 99 | 1015.7 |
| 20260508064118 | 2 | 217 | 0.0 | 0.0 | 0.00 | 0.00 | 0.00 | 99 | 1015.6 |
| 20260508063614 | 2 | 216 | 1.6 | 1.6 | 0.00 | 0.00 | 0.00 | 99 | 1015.4 |
| 20260508063112 | 2 | 217 | 0.0 | 0.0 | 0.00 | 0.00 | 0.00 | 99 | 1015.5 |
| 20260508062609 | 2 | 217 | 0.0 | 0.0 | 0.00 | 0.00 | 0.00 | 99 | 1015.6 |
| 20260508062106 | 2 | 217 | 0.0 | 0.0 | 0.00 | 0.00 | 0.00 | 99 | 1015.5 |
| 20260508061604 | 2 | 217 | 0.0 | 0.0 | 0.00 | 0.00 | 0.00 | 99 | 1015.6 |
| 20260508061101 | 3 | 217 | 0.0 | 0.0 | 0.00 | 0.00 | 0.00 | 98 | 1015.7 |
| 20260508060558 | 3 | 217 | 0.0 | 0.0 | 0.00 | 0.00 | 0.00 | 98 | 1015.7 |
| 20260508060055 | 2 | 217 | 0.0 | 0.0 | 0.00 | 0.00 | 0.00 | 98 | 1015.8 |
| 20260508055550 | 2 | 217 | 0.0 | 0.0 | 0.00 | 0.00 | 0.00 | 98 | 1015.8 |
| 20260508055047 | 3 | 217 | 0.0 | 0.0 | 0.00 | 0.00 | 0.00 | 98 | 1015.8 |
| 20260508054543 | 3 | 217 | 0.0 | 0.0 | 0.00 | 0.00 | 0.00 | 98 | 1015.7 |
| 20260508054041 | 3 | 216 | 0.0 | 1.6 | 0.00 | 0.00 | 0.00 | 98 | 1015.7 |
| 20260508053537 | 3 | 216 | 1.6 | 3.2 | 0.00 | 0.00 | 0.00 | 98 | 1015.8 |
| 20260508053036 | 3 | 226 | 1.6 | 3.2 | 0.00 | 0.00 | 0.00 | 98 | 1015.8 |
| 20260508052533 | 3 | 247 | 0.0 | 0.0 | 0.00 | 0.00 | 0.00 | 98 | 1015.7 |
| 20260508052029 | 3 | 248 | 0.0 | 0.0 | 0.00 | 0.00 | 0.00 | 98 | 1015.7 |
| 20260508051526 | 2 | 248 | 0.0 | 0.0 | 0.00 | 0.00 | 0.00 | 97 | 1015.9 |
| 20260508051021 | 2 | 247 | 1.6 | 1.6 | 0.00 | 0.00 | 0.00 | 97 | 1015.9 |
| 20260508050518 | 3 | 277 | 3.2 | 3.2 | 0.00 | 0.00 | 0.00 | 97 | 1015.9 |
| 20260508050015 | 3 | 337 | 0.0 | 0.0 | 0.00 | 0.00 | 0.00 | 97 | 1015.7 |
| 20260508045511 | 3 | 337 | 0.0 | 0.0 | 0.00 | 0.00 | 0.00 | 97 | 1016.0 |
| 20260508045009 | 3 | 337 | 0.0 | 0.0 | 0.00 | 0.00 | 0.00 | 97 | 1015.8 |
| 20260508044506 | 3 | 337 | 0.0 | 0.0 | 0.00 | 0.00 | 0.00 | 97 | 1015.7 |
| 20260508044001 | 3 | 337 | 0.0 | 0.0 | 0.00 | 0.00 | 0.00 | 97 | 1015.7 |
| 20260508043453 | 3 | 337 | 0.0 | 0.0 | 0.00 | 0.00 | 0.00 | 97 | 1015.6 |
| 20260508042949 | -17 | 337 | 0.0 | 0.0 | 0.00 | 0.00 | 0.00 | 1015.7 | |
| 20260508042448 | -17 | 337 | 0.0 | 0.0 | 0.00 | 0.00 | 0.00 | 1015.5 | |
| 20260508041944 | -17 | 337 | 0.0 | 0.0 | 0.00 | 0.00 | 0.00 | 1015.5 | |
| 20260508041440 | -17 | 337 | 0.0 | 0.0 | 0.00 | 0.00 | 0.00 | 1015.4 | |
| 20260508040937 | -17 | 337 | 0.0 | 0.0 | 0.00 | 0.00 | 0.00 | 1015.4 | |
| 20260508040435 | -17 | 337 | 0.0 | 0.0 | 0.00 | 0.00 | 0.00 | 1015.3 | |
| 20260508035933 | -17 | 337 | 0.0 | 0.0 | 0.00 | 0.00 | 0.00 | 1015.4 | |
| 20260508035429 | -17 | 337 | 0.0 | 0.0 | 0.00 | 0.00 | 0.00 | 1015.3 | |
| 20260508034925 | -17 | 337 | 0.0 | 0.0 | 0.00 | 0.00 | 0.00 | 1015.3 | |
| 20260508034423 | -17 | 337 | 0.0 | 0.0 | 0.00 | 0.00 | 0.00 | 1015.2 | |
| 20260508033919 | -17 | 337 | 0.0 | 0.0 | 0.00 | 0.00 | 0.00 | 1015.4 | |
| 20260508033418 | -17 | 337 | 0.0 | 0.0 | 0.00 | 0.00 | 0.00 | 1015.4 | |
| 20260508032915 | -17 | 337 | 0.0 | 0.0 | 0.00 | 0.00 | 0.00 | 1015.4 | |
| 20260508032412 | -17 | 337 | 0.0 | 0.0 | 0.00 | 0.00 | 0.00 | 1015.5 | |
| 20260508031909 | -17 | 337 | 0.0 | 0.0 | 0.00 | 0.00 | 0.00 | 1015.4 | |
| 20260508031406 | -17 | 337 | 0.0 | 0.0 | 0.00 | 0.00 | 0.00 | 1015.6 | |
| 20260508030901 | -17 | 337 | 0.0 | 0.0 | 0.00 | 0.00 | 0.00 | 1015.7 | |
| 20260508030359 | -17 | 337 | 0.0 | 0.0 | 0.00 | 0.00 | 0.00 | 1015.3 | |
| 20260508025857 | -17 | 337 | 0.0 | 0.0 | 0.00 | 0.00 | 0.00 | 1015.5 | |
| 20260508025353 | -17 | 337 | 0.0 | 0.0 | 0.00 | 0.00 | 0.00 | 1015.4 | |
| 20260508024850 | -17 | 337 | 0.0 | 0.0 | 0.00 | 0.00 | 0.00 | 1015.1 | |
| 20260508024347 | -17 | 337 | 0.0 | 0.0 | 0.00 | 0.00 | 0.00 | 1015.3 | |
| 20260508023844 | -17 | 337 | 0.0 | 0.0 | 0.00 | 0.00 | 0.00 | 1015.3 | |
| 20260508023341 | -17 | 337 | 0.0 | 0.0 | 0.00 | 0.00 | 0.00 | 1015.0 | |
| 20260508022837 | -17 | 337 | 0.0 | 0.0 | 0.00 | 0.00 | 0.00 | 1015.1 | |
| 20260508022332 | -17 | 337 | 0.0 | 0.0 | 0.00 | 0.00 | 0.00 | 1015.2 | |
| 20260508021830 | -17 | 337 | 0.0 | 0.0 | 0.00 | 0.00 | 0.00 | 1015.1 | |
| 20260508021325 | -17 | 337 | 0.0 | 0.0 | 0.00 | 0.00 | 0.00 | 1015.2 | |
| 20260508020821 | -17 | 337 | 0.0 | 0.0 | 0.00 | 0.00 | 0.00 | 1015.0 | |
| 20260508020319 | -17 | 337 | 0.0 | 0.0 | 0.00 | 0.00 | 0.00 | 1014.8 | |
| 20260508015816 | -17 | 337 | 0.0 | 0.0 | 0.00 | 0.00 | 0.00 | 1014.9 | |
| 20260508015314 | -17 | 337 | 0.0 | 0.0 | 0.00 | 0.00 | 0.00 | 1014.7 | |
| 20260508014811 | -17 | 337 | 0.0 | 0.0 | 0.00 | 0.00 | 0.00 | 1014.5 | |
| 20260508014308 | -17 | 337 | 0.0 | 0.0 | 0.00 | 0.00 | 0.00 | 1014.7 | |
| 20260508013803 | -17 | 337 | 0.0 | 0.0 | 0.00 | 0.00 | 0.00 | 1014.6 | |
| 20260508013259 | -17 | 337 | 0.0 | 0.0 | 0.00 | 0.00 | 0.00 | 1014.5 | |
| 20260508012757 | -17 | 337 | 0.0 | 0.0 | 0.00 | 0.00 | 0.00 | 1014.5 | |
| 20260508012254 | -17 | 337 | 0.0 | 0.0 | 0.00 | 0.00 | 0.00 | 1014.3 |